sensor_id;sensor_type;location;lat;lon;timestamp;pressure;altitude;pressure_sealevel;temperature;humidity
12626;BME280;6378;42.684;23.372;2022-08-04T00:00:39;95283.25;;;19.59;100.00
12626;BME280;6378;42.684;23.372;2022-08-04T00:03:16;95265.75;;;19.35;100.00
12626;BME280;6378;42.684;23.372;2022-08-04T00:06:12;95291.47;;;19.48;100.00
12626;BME280;6378;42.684;23.372;2022-08-04T00:08:56;95299.69;;;19.34;100.00
12626;BME280;6378;42.684;23.372;2022-08-04T00:11:29;95289.94;;;19.26;100.00
12626;BME280;6378;42.684;23.372;2022-08-04T00:14:08;95298.53;;;19.24;100.00
12626;BME280;6378;42.684;23.372;2022-08-04T00:16:37;95259.63;;;18.99;100.00
12626;BME280;6378;42.684;23.372;2022-08-04T00:19:27;95283.78;;;19.04;100.00
12626;BME280;6378;42.684;23.372;2022-08-04T00:21:59;95294.25;;;19.16;100.00
12626;BME280;6378;42.684;23.372;2022-08-04T00:24:29;95292.25;;;19.31;100.00
12626;BME280;6378;42.684;23.372;2022-08-04T00:26:55;95273.59;;;19.22;100.00
12626;BME280;6378;42.684;23.372;2022-08-04T00:29:21;95278.28;;;19.11;100.00
12626;BME280;6378;42.684;23.372;2022-08-04T00:31:48;95259.59;;;19.10;100.00
12626;BME280;6378;42.684;23.372;2022-08-04T00:34:14;95289.94;;;19.29;100.00
12626;BME280;6378;42.684;23.372;2022-08-04T00:36:42;95270.88;;;19.15;100.00
12626;BME280;6378;42.684;23.372;2022-08-04T00:39:11;95260.75;;;19.19;100.00
12626;BME280;6378;42.684;23.372;2022-08-04T00:50:04;95287.06;;;19.79;100.00
12626;BME280;6378;42.684;23.372;2022-08-04T00:55:31;95284.47;;;19.26;100.00
12626;BME280;6378;42.684;23.372;2022-08-04T01:00:57;95253.75;;;19.04;100.00
12626;BME280;6378;42.684;23.372;2022-08-04T01:03:47;95285.97;;;19.55;100.00
12626;BME280;6378;42.684;23.372;2022-08-04T01:12:16;95292.28;;;19.27;100.00
12626;BME280;6378;42.684;23.372;2022-08-04T01:15:20;95286.41;;;19.39;100.00
12626;BME280;6378;42.684;23.372;2022-08-04T01:18:20;95295.44;;;19.15;100.00
12626;BME280;6378;42.684;23.372;2022-08-04T01:21:15;95297.41;;;18.97;100.00
12626;BME280;6378;42.684;23.372;2022-08-04T01:26:58;95285.34;;;18.94;100.00
12626;BME280;6378;42.684;23.372;2022-08-04T01:29:27;95284.91;;;19.17;100.00
12626;BME280;6378;42.684;23.372;2022-08-04T01:32:02;95275.13;;;19.34;100.00
12626;BME280;6378;42.684;23.372;2022-08-04T01:34:33;95263.78;;;19.50;100.00
12626;BME280;6378;42.684;23.372;2022-08-04T01:40:04;95273.53;;;19.47;100.00
12626;BME280;6378;42.684;23.372;2022-08-04T01:42:32;95284.84;;;19.31;100.00
12626;BME280;6378;42.684;23.372;2022-08-04T01:45:06;95286.84;;;19.24;100.00
12626;BME280;6378;42.684;23.372;2022-08-04T01:47:37;95290.78;;;19.01;100.00
12626;BME280;6378;42.684;23.372;2022-08-04T01:50:10;95273.66;;;18.87;100.00
12626;BME280;6378;42.684;23.372;2022-08-04T01:52:38;95290.75;;;19.23;100.00
12626;BME280;6378;42.684;23.372;2022-08-04T01:55:06;95281.75;;;19.33;100.00
12626;BME280;6378;42.684;23.372;2022-08-04T01:57:36;95287.59;;;19.35;100.00
12626;BME280;6378;42.684;23.372;2022-08-04T02:00:06;95290.69;;;19.48;100.00
12626;BME280;6378;42.684;23.372;2022-08-04T02:02:32;95282.84;;;19.64;100.00
12626;BME280;6378;42.684;23.372;2022-08-04T02:04:58;95276.22;;;19.58;100.00
12626;BME280;6378;42.684;23.372;2022-08-04T02:07:49;95282.03;;;19.60;100.00
12626;BME280;6378;42.684;23.372;2022-08-04T02:10:29;95285.63;;;19.50;100.00
12626;BME280;6378;42.684;23.372;2022-08-04T02:21:33;95279.50;;;18.82;100.00
12626;BME280;6378;42.684;23.372;2022-08-04T02:24:02;95282.28;;;18.60;100.00
12626;BME280;6378;42.684;23.372;2022-08-04T02:26:31;95291.97;;;18.26;100.00
12626;BME280;6378;42.684;23.372;2022-08-04T02:29:09;95286.13;;;18.35;100.00
12626;BME280;6378;42.684;23.372;2022-08-04T02:31:42;95294.31;;;18.52;100.00
12626;BME280;6378;42.684;23.372;2022-08-04T02:34:27;95290.44;;;18.60;100.00
12626;BME280;6378;42.684;23.372;2022-08-04T02:36:54;95289.28;;;18.62;100.00
12626;BME280;6378;42.684;23.372;2022-08-04T02:39:21;95271.72;;;18.34;100.00
12626;BME280;6378;42.684;23.372;2022-08-04T02:41:48;95251.09;;;18.30;100.00
12626;BME280;6378;42.684;23.372;2022-08-04T02:44:20;95279.13;;;18.44;100.00
12626;BME280;6378;42.684;23.372;2022-08-04T02:46:47;95290.41;;;18.36;100.00
12626;BME280;6378;42.684;23.372;2022-08-04T02:49:16;95286.13;;;18.31;100.00
12626;BME280;6378;42.684;23.372;2022-08-04T02:51:45;95284.97;;;18.46;100.00
12626;BME280;6378;42.684;23.372;2022-08-04T02:54:14;95288.47;;;18.50;100.00
12626;BME280;6378;42.684;23.372;2022-08-04T02:56:42;95282.63;;;18.45;100.00
12626;BME280;6378;42.684;23.372;2022-08-04T02:59:10;95281.44;;;18.28;100.00
12626;BME280;6378;42.684;23.372;2022-08-04T03:01:37;95289.25;;;18.26;100.00
12626;BME280;6378;42.684;23.372;2022-08-04T03:21:19;95283.44;;;18.59;100.00
12626;BME280;6378;42.684;23.372;2022-08-04T03:35:02;95279.50;;;18.89;100.00
12626;BME280;6378;42.684;23.372;2022-08-04T04:09:36;95278.47;;;19.77;100.00
12626;BME280;6378;42.684;23.372;2022-08-04T04:12:34;95277.88;;;20.10;100.00
12626;BME280;6378;42.684;23.372;2022-08-04T04:20:50;95279.47;;;21.75;100.00
12626;BME280;6378;42.684;23.372;2022-08-04T04:23:30;95277.97;;;22.31;100.00
12626;BME280;6378;42.684;23.372;2022-08-04T04:31:52;95268.78;;;22.15;100.00
12626;BME280;6378;42.684;23.372;2022-08-04T04:34:37;95274.59;;;22.47;100.00
12626;BME280;6378;42.684;23.372;2022-08-04T04:37:28;95274.59;;;22.20;100.00
12626;BME280;6378;42.684;23.372;2022-08-04T04:40:29;95275.22;;;22.31;100.00
12626;BME280;6378;42.684;23.372;2022-08-04T04:46:26;95262.81;;;22.73;100.00
12626;BME280;6378;42.684;23.372;2022-08-04T04:51:48;95289.31;;;21.73;100.00
12626;BME280;6378;42.684;23.372;2022-08-04T04:54:31;95287.84;;;21.31;100.00
12626;BME280;6378;42.684;23.372;2022-08-04T04:57:14;95284.44;;;21.20;100.00
12626;BME280;6378;42.684;23.372;2022-08-04T04:59:52;95246.09;;;21.23;100.00
12626;BME280;6378;42.684;23.372;2022-08-04T05:11:12;95295.31;;;21.27;100.00
12626;BME280;6378;42.684;23.372;2022-08-04T05:13:46;95287.66;;;21.07;100.00
12626;BME280;6378;42.684;23.372;2022-08-04T05:16:35;95298.09;;;21.57;100.00
12626;BME280;6378;42.684;23.372;2022-08-04T05:22:34;95286.56;;;23.26;100.00
12626;BME280;6378;42.684;23.372;2022-08-04T05:25:06;95284.31;;;23.64;97.68
12626;BME280;6378;42.684;23.372;2022-08-04T05:27:39;95279.22;;;23.83;94.02
12626;BME280;6378;42.684;23.372;2022-08-04T05:30:06;95283.47;;;23.67;94.63
12626;BME280;6378;42.684;23.372;2022-08-04T05:32:42;95286.50;;;23.73;93.81
12626;BME280;6378;42.684;23.372;2022-08-04T05:35:13;95286.88;;;24.11;90.97
12626;BME280;6378;42.684;23.372;2022-08-04T05:37:40;95287.72;;;24.44;88.37
12626;BME280;6378;42.684;23.372;2022-08-04T05:40:09;95291.44;;;24.70;86.46
12626;BME280;6378;42.684;23.372;2022-08-04T05:42:37;95286.44;;;25.13;82.53
12626;BME280;6378;42.684;23.372;2022-08-04T05:45:06;95282.31;;;25.50;78.09
12626;BME280;6378;42.684;23.372;2022-08-04T05:47:32;95292.34;;;25.73;78.63
12626;BME280;6378;42.684;23.372;2022-08-04T05:50:00;95288.09;;;25.97;72.17
12626;BME280;6378;42.684;23.372;2022-08-04T05:52:26;95290.91;;;26.22;73.10
12626;BME280;6378;42.684;23.372;2022-08-04T05:54:53;95273.41;;;26.00;68.82
12626;BME280;6378;42.684;23.372;2022-08-04T05:57:20;95293.53;;;25.72;68.58
12626;BME280;6378;42.684;23.372;2022-08-04T05:59:46;95285.47;;;25.36;71.60
12626;BME280;6378;42.684;23.372;2022-08-04T06:02:13;95299.19;;;25.81;72.26
12626;BME280;6378;42.684;23.372;2022-08-04T06:04:45;95303.16;;;26.21;68.17
12626;BME280;6378;42.684;23.372;2022-08-04T06:07:13;95296.00;;;26.37;68.08
12626;BME280;6378;42.684;23.372;2022-08-04T06:09:39;95298.31;;;26.25;69.54
12626;BME280;6378;42.684;23.372;2022-08-04T06:12:08;95292.34;;;26.27;70.29
12626;BME280;6378;42.684;23.372;2022-08-04T06:14:39;95295.34;;;26.33;69.69
12626;BME280;6378;42.684;23.372;2022-08-04T06:17:07;95294.56;;;26.32;68.50
12626;BME280;6378;42.684;23.372;2022-08-04T06:19:34;95277.03;;;26.39;66.61
12626;BME280;6378;42.684;23.372;2022-08-04T06:22:02;95299.34;;;26.03;72.79
12626;BME280;6378;42.684;23.372;2022-08-04T06:24:30;95279.69;;;25.88;69.00
12626;BME280;6378;42.684;23.372;2022-08-04T06:26:58;95270.91;;;25.35;71.90
12626;BME280;6378;42.684;23.372;2022-08-04T06:29:26;95299.41;;;25.29;73.26
12626;BME280;6378;42.684;23.372;2022-08-04T06:32:00;95301.25;;;25.19;72.86
12626;BME280;6378;42.684;23.372;2022-08-04T06:34:39;95300.72;;;25.08;80.02
12626;BME280;6378;42.684;23.372;2022-08-04T06:37:06;95300.22;;;25.13;74.08
12626;BME280;6378;42.684;23.372;2022-08-04T06:39:33;95299.56;;;25.38;75.76
12626;BME280;6378;42.684;23.372;2022-08-04T06:42:00;95300.75;;;24.92;79.71
12626;BME280;6378;42.684;23.372;2022-08-04T06:44:27;95303.63;;;24.69;81.78
12626;BME280;6378;42.684;23.372;2022-08-04T06:46:54;95297.78;;;24.83;80.03
12626;BME280;6378;42.684;23.372;2022-08-04T06:49:22;95301.06;;;24.78;80.17
12626;BME280;6378;42.684;23.372;2022-08-04T06:51:49;95296.25;;;24.66;79.50
12626;BME280;6378;42.684;23.372;2022-08-04T06:54:16;95298.94;;;23.97;84.95
12626;BME280;6378;42.684;23.372;2022-08-04T06:56:42;95291.31;;;24.05;85.90
12626;BME280;6378;42.684;23.372;2022-08-04T06:59:11;95298.16;;;24.16;86.56
12626;BME280;6378;42.684;23.372;2022-08-04T07:01:36;95303.03;;;24.45;88.90
12626;BME280;6378;42.684;23.372;2022-08-04T07:04:04;95284.44;;;24.33;84.08
12626;BME280;6378;42.684;23.372;2022-08-04T07:06:30;95297.44;;;24.32;87.54
12626;BME280;6378;42.684;23.372;2022-08-04T07:08:56;95301.81;;;24.10;88.13
12626;BME280;6378;42.684;23.372;2022-08-04T07:11:22;95287.28;;;24.45;86.01
12626;BME280;6378;42.684;23.372;2022-08-04T07:13:49;95301.97;;;24.91;83.64
12626;BME280;6378;42.684;23.372;2022-08-04T07:16:15;95304.50;;;25.14;77.73
12626;BME280;6378;42.684;23.372;2022-08-04T07:18:42;95277.47;;;25.54;75.87
12626;BME280;6378;42.684;23.372;2022-08-04T07:21:08;95295.94;;;25.99;72.75
12626;BME280;6378;42.684;23.372;2022-08-04T07:23:35;95291.16;;;26.53;71.96
12626;BME280;6378;42.684;23.372;2022-08-04T07:26:01;95286.03;;;26.64;68.34
12626;BME280;6378;42.684;23.372;2022-08-04T07:28:28;95282.97;;;27.22;64.92
12626;BME280;6378;42.684;23.372;2022-08-04T07:30:55;95284.66;;;27.97;60.93
12626;BME280;6378;42.684;23.372;2022-08-04T07:33:21;95272.72;;;27.79;62.70
12626;BME280;6378;42.684;23.372;2022-08-04T07:35:50;95278.69;;;27.99;59.10
12626;BME280;6378;42.684;23.372;2022-08-04T07:38:17;95279.81;;;27.45;59.90
12626;BME280;6378;42.684;23.372;2022-08-04T07:40:43;95269.16;;;27.56;59.50
12626;BME280;6378;42.684;23.372;2022-08-04T07:43:08;95260.09;;;27.78;58.06
12626;BME280;6378;42.684;23.372;2022-08-04T07:45:34;95282.03;;;27.38;60.53
12626;BME280;6378;42.684;23.372;2022-08-04T07:48:01;95271.94;;;27.78;60.09
12626;BME280;6378;42.684;23.372;2022-08-04T07:50:28;95280.78;;;28.17;58.51
12626;BME280;6378;42.684;23.372;2022-08-04T07:52:54;95280.09;;;27.82;60.36
12626;BME280;6378;42.684;23.372;2022-08-04T07:55:20;95283.09;;;27.19;61.31
12626;BME280;6378;42.684;23.372;2022-08-04T07:58:04;95279.75;;;26.89;62.97
12626;BME280;6378;42.684;23.372;2022-08-04T08:00:30;95282.53;;;26.51;63.97
12626;BME280;6378;42.684;23.372;2022-08-04T08:02:56;95269.28;;;26.46;65.76
12626;BME280;6378;42.684;23.372;2022-08-04T08:05:22;95271.78;;;26.79;67.63
12626;BME280;6378;42.684;23.372;2022-08-04T08:07:49;95274.88;;;26.93;63.50
12626;BME280;6378;42.684;23.372;2022-08-04T08:10:15;95273.31;;;27.05;65.17
12626;BME280;6378;42.684;23.372;2022-08-04T08:12:42;95273.75;;;27.03;62.06
12626;BME280;6378;42.684;23.372;2022-08-04T08:15:09;95281.97;;;27.29;60.82
12626;BME280;6378;42.684;23.372;2022-08-04T08:17:37;95279.34;;;27.60;58.86
12626;BME280;6378;42.684;23.372;2022-08-04T08:20:03;95274.19;;;28.14;58.99
12626;BME280;6378;42.684;23.372;2022-08-04T08:22:30;95269.38;;;28.46;58.75
12626;BME280;6378;42.684;23.372;2022-08-04T08:24:55;95261.88;;;28.95;52.70
12626;BME280;6378;42.684;23.372;2022-08-04T08:27:21;95268.72;;;29.40;52.78
12626;BME280;6378;42.684;23.372;2022-08-04T08:29:47;95274.41;;;29.54;51.54
12626;BME280;6378;42.684;23.372;2022-08-04T08:32:13;95254.06;;;29.30;50.49
12626;BME280;6378;42.684;23.372;2022-08-04T08:34:41;95287.53;;;29.54;49.45
12626;BME280;6378;42.684;23.372;2022-08-04T08:37:33;95276.69;;;29.19;49.24
12626;BME280;6378;42.684;23.372;2022-08-04T08:45:40;95280.81;;;28.97;48.78
12626;BME280;6378;42.684;23.372;2022-08-04T08:56:57;95255.47;;;28.67;49.67
12626;BME280;6378;42.684;23.372;2022-08-04T09:02:40;95271.91;;;29.20;48.69
12626;BME280;6378;42.684;23.372;2022-08-04T09:05:35;95270.09;;;29.81;46.09
12626;BME280;6378;42.684;23.372;2022-08-04T09:11:07;95268.41;;;30.52;41.64
12626;BME280;6378;42.684;23.372;2022-08-04T09:13:54;95258.38;;;29.95;42.43
12626;BME280;6378;42.684;23.372;2022-08-04T09:21:44;95251.44;;;29.99;44.34
12626;BME280;6378;42.684;23.372;2022-08-04T09:24:19;95252.50;;;29.93;44.38
12626;BME280;6378;42.684;23.372;2022-08-04T09:27:00;95234.31;;;29.28;44.25
12626;BME280;6378;42.684;23.372;2022-08-04T09:29:36;95251.28;;;29.76;43.89
12626;BME280;6378;42.684;23.372;2022-08-04T09:32:29;95250.63;;;30.08;42.72
12626;BME280;6378;42.684;23.372;2022-08-04T09:35:36;95253.59;;;30.46;40.71
12626;BME280;6378;42.684;23.372;2022-08-04T09:44:06;95247.97;;;30.23;39.79
12626;BME280;6378;42.684;23.372;2022-08-04T09:46:41;95246.66;;;30.75;41.43
12626;BME280;6378;42.684;23.372;2022-08-04T09:59:44;95237.41;;;29.85;39.08
12626;BME280;6378;42.684;23.372;2022-08-04T10:02:16;95247.88;;;29.99;39.97
12626;BME280;6378;42.684;23.372;2022-08-04T10:04:44;95228.94;;;29.79;39.79
12626;BME280;6378;42.684;23.372;2022-08-04T10:07:18;95241.09;;;29.73;39.07
12626;BME280;6378;42.684;23.372;2022-08-04T10:13:08;95217.84;;;30.30;37.02
12626;BME280;6378;42.684;23.372;2022-08-04T10:24:41;95231.50;;;30.01;39.48
12626;BME280;6378;42.684;23.372;2022-08-04T10:27:31;95227.47;;;30.11;40.89
12626;BME280;6378;42.684;23.372;2022-08-04T10:30:03;95227.47;;;30.11;41.40
12626;BME280;6378;42.684;23.372;2022-08-04T10:35:20;95212.44;;;29.76;41.61
12626;BME280;6378;42.684;23.372;2022-08-04T10:40:29;95211.69;;;29.66;40.33
12626;BME280;6378;42.684;23.372;2022-08-04T10:43:11;95188.16;;;29.34;41.06
12626;BME280;6378;42.684;23.372;2022-08-04T10:45:48;95209.53;;;29.70;39.21
12626;BME280;6378;42.684;23.372;2022-08-04T10:51:20;95217.72;;;30.25;39.68
12626;BME280;6378;42.684;23.372;2022-08-04T10:53:57;95216.00;;;30.27;39.26
12626;BME280;6378;42.684;23.372;2022-08-04T10:56:40;95211.72;;;30.59;37.55
12626;BME280;6378;42.684;23.372;2022-08-04T10:59:15;95189.44;;;30.92;36.54
12626;BME280;6378;42.684;23.372;2022-08-04T11:01:44;95204.78;;;31.11;34.58
12626;BME280;6378;42.684;23.372;2022-08-04T11:04:28;95206.91;;;31.16;32.26
12626;BME280;6378;42.684;23.372;2022-08-04T11:06:57;95203.03;;;31.14;31.84
12626;BME280;6378;42.684;23.372;2022-08-04T11:09:24;95202.19;;;31.08;33.38
12626;BME280;6378;42.684;23.372;2022-08-04T11:12:07;95174.56;;;31.19;32.90
12626;BME280;6378;42.684;23.372;2022-08-04T11:14:40;95194.19;;;31.39;32.66
12626;BME280;6378;42.684;23.372;2022-08-04T11:17:10;95197.59;;;31.19;32.21
12626;BME280;6378;42.684;23.372;2022-08-04T11:22:09;95190.28;;;31.07;32.21
12626;BME280;6378;42.684;23.372;2022-08-04T11:24:51;95169.69;;;30.66;31.85
12626;BME280;6378;42.684;23.372;2022-08-04T11:30:04;95179.81;;;31.02;32.21
12626;BME280;6378;42.684;23.372;2022-08-04T11:32:36;95178.63;;;31.18;32.92
12626;BME280;6378;42.684;23.372;2022-08-04T11:35:15;95183.88;;;30.92;31.03
12626;BME280;6378;42.684;23.372;2022-08-04T11:37:57;95181.09;;;30.68;30.50
12626;BME280;6378;42.684;23.372;2022-08-04T11:40:40;95182.91;;;30.47;31.00
12626;BME280;6378;42.684;23.372;2022-08-04T11:43:21;95185.72;;;30.38;32.52
12626;BME280;6378;42.684;23.372;2022-08-04T11:45:55;95183.66;;;30.15;33.70
12626;BME280;6378;42.684;23.372;2022-08-04T11:48:51;95182.44;;;30.07;33.74
12626;BME280;6378;42.684;23.372;2022-08-04T11:51:20;95175.81;;;30.46;35.28
12626;BME280;6378;42.684;23.372;2022-08-04T11:53:47;95163.69;;;30.35;33.39
12626;BME280;6378;42.684;23.372;2022-08-04T11:56:15;95177.38;;;30.71;34.00
12626;BME280;6378;42.684;23.372;2022-08-04T11:58:40;95150.97;;;30.90;33.45
12626;BME280;6378;42.684;23.372;2022-08-04T12:01:37;95160.22;;;30.73;32.03
12626;BME280;6378;42.684;23.372;2022-08-04T12:07:22;95176.34;;;30.60;31.07
12626;BME280;6378;42.684;23.372;2022-08-04T12:12:43;95168.19;;;30.80;32.22
12626;BME280;6378;42.684;23.372;2022-08-04T12:17:47;95169.34;;;30.73;31.12
12626;BME280;6378;42.684;23.372;2022-08-04T12:20:18;95174.44;;;30.42;30.22
12626;BME280;6378;42.684;23.372;2022-08-04T12:22:49;95163.84;;;30.31;32.42
12626;BME280;6378;42.684;23.372;2022-08-04T12:25:20;95185.91;;;30.35;32.76
12626;BME280;6378;42.684;23.372;2022-08-04T12:30:26;95165.00;;;30.48;33.16
12626;BME280;6378;42.684;23.372;2022-08-04T12:33:00;95168.88;;;30.42;31.10
12626;BME280;6378;42.684;23.372;2022-08-04T12:35:32;95154.25;;;30.32;31.98
12626;BME280;6378;42.684;23.372;2022-08-04T12:38:11;95171.25;;;30.25;31.03
12626;BME280;6378;42.684;23.372;2022-08-04T12:43:26;95158.56;;;30.09;32.86
12626;BME280;6378;42.684;23.372;2022-08-04T12:46:03;95146.31;;;30.16;33.03
12626;BME280;6378;42.684;23.372;2022-08-04T12:48:31;95138.72;;;30.26;31.83
12626;BME280;6378;42.684;23.372;2022-08-04T12:50:59;95138.84;;;30.31;32.39
12626;BME280;6378;42.684;23.372;2022-08-04T12:53:36;95145.84;;;30.50;32.91
12626;BME280;6378;42.684;23.372;2022-08-04T12:56:05;95145.84;;;30.50;32.11
12626;BME280;6378;42.684;23.372;2022-08-04T12:58:36;95143.50;;;30.25;30.95
12626;BME280;6378;42.684;23.372;2022-08-04T13:01:05;95145.03;;;30.26;31.93
12626;BME280;6378;42.684;23.372;2022-08-04T13:03:44;95140.31;;;30.41;33.21
12626;BME280;6378;42.684;23.372;2022-08-04T13:06:13;95110.47;;;30.27;31.81
12626;BME280;6378;42.684;23.372;2022-08-04T13:08:41;95139.28;;;30.39;33.57
12626;BME280;6378;42.684;23.372;2022-08-04T13:11:09;95128.50;;;30.32;34.64
12626;BME280;6378;42.684;23.372;2022-08-04T13:13:36;95114.00;;;30.04;32.93
12626;BME280;6378;42.684;23.372;2022-08-04T13:16:04;95029.69;;;29.59;31.90
12626;BME280;6378;42.684;23.372;2022-08-04T13:18:34;95118.81;;;30.27;32.31
12626;BME280;6378;42.684;23.372;2022-08-04T13:21:20;95075.31;;;30.24;32.85
12626;BME280;6378;42.684;23.372;2022-08-04T13:23:49;95119.63;;;30.90;31.16
12626;BME280;6378;42.684;23.372;2022-08-04T13:26:16;95130.16;;;31.10;31.39
12626;BME280;6378;42.684;23.372;2022-08-04T13:28:49;95127.88;;;31.23;31.38
12626;BME280;6378;42.684;23.372;2022-08-04T13:31:21;95107.00;;;31.42;32.02
12626;BME280;6378;42.684;23.372;2022-08-04T13:33:53;95124.09;;;31.64;31.36
12626;BME280;6378;42.684;23.372;2022-08-04T13:36:23;95117.03;;;31.98;30.78
12626;BME280;6378;42.684;23.372;2022-08-04T13:38:56;95119.38;;;31.85;30.08
12626;BME280;6378;42.684;23.372;2022-08-04T13:41:23;95110.63;;;31.77;29.62
12626;BME280;6378;42.684;23.372;2022-08-04T13:43:54;95120.63;;;31.69;30.14
12626;BME280;6378;42.684;23.372;2022-08-04T13:46:36;95110.34;;;31.90;30.30
12626;BME280;6378;42.684;23.372;2022-08-04T13:49:08;95110.91;;;31.94;30.56
12626;BME280;6378;42.684;23.372;2022-08-04T13:51:34;95108.03;;;31.89;29.71
12626;BME280;6378;42.684;23.372;2022-08-04T13:54:00;95105.38;;;31.65;30.13
12626;BME280;6378;42.684;23.372;2022-08-04T13:56:35;95096.25;;;31.50;31.01
12626;BME280;6378;42.684;23.372;2022-08-04T13:59:06;95088.84;;;31.17;30.59
12626;BME280;6378;42.684;23.372;2022-08-04T14:01:33;95094.06;;;31.01;31.54
12626;BME280;6378;42.684;23.372;2022-08-04T14:04:24;95103.34;;;31.21;32.69
12626;BME280;6378;42.684;23.372;2022-08-04T14:09:26;95084.34;;;31.64;33.26
12626;BME280;6378;42.684;23.372;2022-08-04T14:11:55;95079.44;;;31.88;31.62
12626;BME280;6378;42.684;23.372;2022-08-04T14:14:29;95088.81;;;32.05;31.70
12626;BME280;6378;42.684;23.372;2022-08-04T14:17:07;95078.63;;;32.02;30.54
12626;BME280;6378;42.684;23.372;2022-08-04T14:19:54;95087.72;;;32.17;31.06
12626;BME280;6378;42.684;23.372;2022-08-04T14:25:08;95080.94;;;32.04;30.53
12626;BME280;6378;42.684;23.372;2022-08-04T14:27:52;95086.56;;;31.60;29.85
12626;BME280;6378;42.684;23.372;2022-08-04T14:32:54;95048.66;;;31.04;31.98
12626;BME280;6378;42.684;23.372;2022-08-04T14:35:20;95073.69;;;31.18;31.33
12626;BME280;6378;42.684;23.372;2022-08-04T14:37:59;95073.97;;;31.20;31.04
12626;BME280;6378;42.684;23.372;2022-08-04T14:40:28;95083.00;;;31.30;32.06
12626;BME280;6378;42.684;23.372;2022-08-04T14:42:54;95087.22;;;31.11;30.96
12626;BME280;6378;42.684;23.372;2022-08-04T14:45:33;95085.78;;;31.15;30.95
12626;BME280;6378;42.684;23.372;2022-08-04T14:48:01;95082.41;;;31.11;30.55
12626;BME280;6378;42.684;23.372;2022-08-04T14:50:47;95081.72;;;31.02;30.46
12626;BME280;6378;42.684;23.372;2022-08-04T14:53:17;95084.13;;;31.09;30.65
12626;BME280;6378;42.684;23.372;2022-08-04T14:55:48;95077.81;;;31.23;30.06
12626;BME280;6378;42.684;23.372;2022-08-04T15:00:47;95074.94;;;31.03;31.43
12626;BME280;6378;42.684;23.372;2022-08-04T15:03:12;95047.84;;;30.88;30.82
12626;BME280;6378;42.684;23.372;2022-08-04T15:05:40;95072.44;;;31.05;29.59
12626;BME280;6378;42.684;23.372;2022-08-04T15:08:07;95048.69;;;30.80;29.46
12626;BME280;6378;42.684;23.372;2022-08-04T15:10:33;95067.78;;;30.87;30.01
12626;BME280;6378;42.684;23.372;2022-08-04T15:13:00;95070.66;;;30.78;29.93
12626;BME280;6378;42.684;23.372;2022-08-04T15:15:26;95078.81;;;30.58;30.42
12626;BME280;6378;42.684;23.372;2022-08-04T15:17:52;95043.31;;;30.14;30.84
12626;BME280;6378;42.684;23.372;2022-08-04T15:20:18;95066.47;;;30.35;30.46
12626;BME280;6378;42.684;23.372;2022-08-04T15:22:44;95049.97;;;30.31;30.36
12626;BME280;6378;42.684;23.372;2022-08-04T15:25:09;94975.75;;;29.84;30.36
12626;BME280;6378;42.684;23.372;2022-08-04T15:27:37;95062.84;;;30.43;30.53
12626;BME280;6378;42.684;23.372;2022-08-04T15:30:08;95064.88;;;30.19;32.05
12626;BME280;6378;42.684;23.372;2022-08-04T15:32:40;95053.50;;;30.08;32.65
12626;BME280;6378;42.684;23.372;2022-08-04T15:35:12;95055.56;;;29.98;32.80
12626;BME280;6378;42.684;23.372;2022-08-04T15:45:31;95060.84;;;29.54;33.13
12626;BME280;6378;42.684;23.372;2022-08-04T15:58:57;95066.00;;;29.70;35.24
12626;BME280;6378;42.684;23.372;2022-08-04T16:01:23;95062.25;;;29.83;32.98
12626;BME280;6378;42.684;23.372;2022-08-04T16:03:51;95065.00;;;29.92;34.32
12626;BME280;6378;42.684;23.372;2022-08-04T16:18:53;95059.19;;;30.37;33.10
12626;BME280;6378;42.684;23.372;2022-08-04T16:21:24;95055.25;;;30.29;33.30
12626;BME280;6378;42.684;23.372;2022-08-04T16:24:03;95066.75;;;30.37;33.69
12626;BME280;6378;42.684;23.372;2022-08-04T16:26:41;95051.63;;;30.38;33.66
12626;BME280;6378;42.684;23.372;2022-08-04T16:32:19;95059.72;;;30.50;32.73
12626;BME280;6378;42.684;23.372;2022-08-04T16:35:01;95049.63;;;30.38;33.56
12626;BME280;6378;42.684;23.372;2022-08-04T16:40:30;95058.94;;;30.26;35.10
12626;BME280;6378;42.684;23.372;2022-08-04T16:43:07;95066.81;;;30.04;33.42
12626;BME280;6378;42.684;23.372;2022-08-04T16:48:26;95066.31;;;29.31;35.84
12626;BME280;6378;42.684;23.372;2022-08-04T16:51:03;95065.03;;;29.22;34.97
12626;BME280;6378;42.684;23.372;2022-08-04T16:53:37;95063.53;;;29.21;36.79
12626;BME280;6378;42.684;23.372;2022-08-04T16:56:03;95065.81;;;29.23;34.97
12626;BME280;6378;42.684;23.372;2022-08-04T16:58:33;95072.63;;;29.22;34.89
12626;BME280;6378;42.684;23.372;2022-08-04T17:03:32;95079.13;;;29.01;35.80
12626;BME280;6378;42.684;23.372;2022-08-04T17:06:11;95068.94;;;29.16;36.02
12626;BME280;6378;42.684;23.372;2022-08-04T17:08:40;95084.78;;;29.15;36.13
12626;BME280;6378;42.684;23.372;2022-08-04T17:11:06;95079.41;;;29.12;36.34
12626;BME280;6378;42.684;23.372;2022-08-04T17:13:39;95077.88;;;29.02;35.90
12626;BME280;6378;42.684;23.372;2022-08-04T17:16:13;95074.50;;;28.79;35.96
12626;BME280;6378;42.684;23.372;2022-08-04T17:18:42;95081.41;;;28.66;36.29
12626;BME280;6378;42.684;23.372;2022-08-04T17:21:17;95089.09;;;28.53;36.77
12626;BME280;6378;42.684;23.372;2022-08-04T17:23:50;95068.44;;;28.26;37.43
12626;BME280;6378;42.684;23.372;2022-08-04T17:26:19;95082.72;;;28.25;37.67
12626;BME280;6378;42.684;23.372;2022-08-04T17:28:49;95073.97;;;28.17;37.51
12626;BME280;6378;42.684;23.372;2022-08-04T17:31:15;95099.66;;;28.27;38.53
12626;BME280;6378;42.684;23.372;2022-08-04T17:33:45;95089.19;;;28.22;38.37
12626;BME280;6378;42.684;23.372;2022-08-04T17:36:12;95090.91;;;28.19;38.32
12626;BME280;6378;42.684;23.372;2022-08-04T17:38:50;95095.34;;;28.26;38.19
12626;BME280;6378;42.684;23.372;2022-08-04T17:41:20;95097.69;;;28.27;37.54
12626;BME280;6378;42.684;23.372;2022-08-04T17:43:57;95077.50;;;28.18;37.89